NCAR-RAP Real-Time Weather Data

Output produced by METARs form (12 August 2020  18:13 UTC)
found at http://weather.rap.ucar.edu/surface/
 
KBKW 121751Z AUTO 33004KT 10SM FEW034 28/20 A3013 RMK AO2 SLP163 T02830200 10283 20206 58007
KBKW 121651Z AUTO 00000KT 10SM FEW029 OVC120 27/20 A3015 RMK AO2 CIG 026 RWY19 SLP171 T02670200
KBKW 121551Z AUTO 00000KT 10SM OVC110 26/21 A3015 RMK AO2 SLP172 T02610206
KBKW 121451Z AUTO 00000KT 10SM OVC100 24/20 A3015 RMK AO2 SLP176 T02390200 50000
KBKW 121351Z AUTO 01006KT 10SM BKN100 24/19 A3015 RMK AO2 SLP172 T02390194 TSNO
KBKW 121251Z AUTO 00000KT 10SM OVC095 22/20 A3016 RMK AO2 SLP177 T02220200 TSNO
KBKW 121151Z AUTO 00000KT 10SM FEW095 SCT120 21/20 A3015 RMK AO2 SLP176 T02060200 10206 20194 51015 TSNO
KBKW 121051Z AUTO 00000KT 10SM BKN095 20/19 A3014 RMK AO2 SLP170 T02000194 TSNO
KBKW 120951Z AUTO 00000KT 10SM SCT075 BKN100 OVC120 20/19 A3013 RMK AO2 SLP166 T02000194 TSNO $
KBKW 120851Z AUTO 00000KT 10SM FEW120 19/19 A3011 RMK AO2 SLP158 T01940194 57004 $
KBKW 120751Z AUTO 00000KT 10SM FEW075 20/19 A3011 RMK AO2 SLP158 T02000194 $
KBKW 120651Z AUTO 00000KT 10SM CLR 20/19 A3012 RMK AO2 SLP161 T02000194 $
KBKW 120551Z AUTO 00000KT 10SM CLR 20/19 A3012 RMK AO2 SLP162 T02000194 10250 20194 50003 $
KBKW 120451Z AUTO 00000KT 10SM CLR 21/20 A3013 RMK AO2 SLP164 T02060200 402830178 $
KBKW 120351Z AUTO 00000KT 10SM CLR 22/21 A3012 RMK AO2 SLP163 T02170206 $
KBKW 120251Z AUTO 03003KT 10SM CLR 22/21 A3011 RMK AO2 SLP161 T02170206 $
KBKW 120151Z AUTO 01003KT 10SM CLR 22/21 A3010 RMK AO2 SLP157 T02220206
KBKW 120051Z AUTO 02005KT 10SM CLR 23/21 A3009 RMK AO2 SLP152 T02330206
KBKW 112351Z AUTO 02005KT 10SM CLR 25/20 A3008 RMK AO2 SLP148 T02500200 10283 20250 53003
KBKW 112251Z AUTO 01005KT 10SM CLR 27/19 A3006 RMK AO2 SLP141 T02670194
KBKW 112151Z AUTO 01006KT 10SM CLR 27/21 A3006 RMK AO2 SLP145 T02670206
KBKW 112051Z AUTO 34010KT 10SM FEW030 27/21 A3007 RMK AO2 SLP145 T02720206 56007